This is the latest recevied weather packets stored in our database for station/object XE1GMR. If no packets are shown the sender has not sent any weather packets the latest 10 day(s).
| Time | Temp. | Humidity | Pressure | Rain* | Wind** | Luminosity | Snow |
|---|---|---|---|---|---|---|---|
| 1778255123 | 25.56° C | 48% | 1121.6 hPa | 0 mm | - | 785 W/m² | - |
| 1778254820 | 25.56° C | 48% | 1121.5 hPa | 0 mm | - | 790 W/m² | - |
| 1778254516 | 25.56° C | 47% | 1121.7 hPa | 0 mm | - | 719 W/m² | - |
| 1778254213 | 25° C | 49% | 1121.6 hPa | 0 mm | - | 716 W/m² | - |
| 1778253910 | 25° C | 50% | 1121.6 hPa | 0 mm | - | 673 W/m² | - |
| 1778253605 | 25° C | 50% | 1121.7 hPa | 0 mm | - | 621 W/m² | - |
| 1778253303 | 25.56° C | 47% | 1121.6 hPa | 0 mm | - | 614 W/m² | - |
| 1778252999 | 25° C | 49% | 1121.6 hPa | 0 mm | - | 596 W/m² | - |
| 1778252696 | 25° C | 48% | 1121.7 hPa | 0 mm | - | 532 W/m² | - |
| 1778252391 | 25° C | 48% | 1121.8 hPa | 0 mm | - | 486 W/m² | - |
| 1778252088 | 25° C | 48% | 1121.8 hPa | 0 mm | - | 502 W/m² | - |
| 1778251785 | 25° C | 48% | 1121.8 hPa | 0 mm | - | 493 W/m² | - |
| 1778251483 | 24.44° C | 49% | 1121.9 hPa | 0 mm | - | 456 W/m² | - |
| 1778251180 | 23.89° C | 49% | 1122 hPa | 0 mm | - | 442 W/m² | - |
| 1778250878 | 23.33° C | 52% | 1121.7 hPa | 0 mm | - | 423 W/m² | - |
| 1778250573 | 23.89° C | 51% | 1121.8 hPa | 0 mm | - | 377 W/m² | - |
| 1778250271 | 23.89° C | 51% | 1121.7 hPa | 0 mm | - | 347 W/m² | - |
| 1778249967 | 22.78° C | 52% | 1121.9 hPa | 0 mm | - | 318 W/m² | - |
| 1778249664 | 22.78° C | 52% | 1121.9 hPa | 0 mm | - | 284 W/m² | - |
| 1778249362 | 22.22° C | 54% | 1121.8 hPa | 0 mm | - | 256 W/m² | - |
| 1778249059 | 22.22° C | 55% | 1121.5 hPa | 0 mm | - | 248 W/m² | - |
| 1778248754 | 22.22° C | 54% | 1121.6 hPa | 0 mm | - | 240 W/m² | - |
| 1778248451 | 21.67° C | 56% | 1121.7 hPa | 0 mm | - | 233 W/m² | - |
| 1778248148 | 21.67° C | 57% | 1121.6 hPa | 0 mm | - | 221 W/m² | - |
| 1778247844 | 21.11° C | 56% | 1121.5 hPa | 0 mm | - | 194 W/m² | - |
* Rain latest hour (hover to see other rain measurements)
** Current wind speed in m/s (hover to see current wind gust speed)